Time;durP1;ratioP1;P1;durP2;ratioP2;P2;SDS_P1;SDS_P2;PMS_P1;PMS_P2;Temp;Humidity;BMP_temperature;BMP_pressure;BME280_temperature;BME280_humidity;BME280_pressure;Samples;Min_cycle;Max_cycle;Signal;HPM_P1;HPM_P2
2021/07/07 00:00:52;;;;;;;5.75;2.60;;;;;;;13.83;84.12;101100.56;10586537;28;20059;-63
2021/07/07 00:05:54;;;;;;;3.35;1.60;;;;;;;13.87;84.57;101100.25;10584723;28;20047;-64
2021/07/07 00:10:57;;;;;;;3.72;1.27;;;;;;;13.59;85.39;101108.28;10585708;28;20395;-63
2021/07/07 00:15:59;;;;;;;6.60;2.28;;;;;;;13.42;84.55;101112.84;10567480;28;20043;-63
2021/07/07 00:21:02;;;;;;;2.75;2.30;;;;;;;13.43;85.62;101106.66;10583979;28;20509;-63
2021/07/07 00:26:04;;;;;;;4.43;2.33;;;;;;;13.63;85.63;101109.75;10585287;28;20051;-62
2021/07/07 00:31:06;;;;;;;3.03;2.30;;;;;;;13.55;86.10;101112.91;10585406;28;20062;-62
2021/07/07 00:36:09;;;;;;;3.85;2.25;;;;;;;13.61;85.08;101107.22;10584477;28;20047;-63
2021/07/07 00:41:11;;;;;;;3.67;2.67;;;;;;;13.57;86.11;101096.06;10584725;28;20048;-63
2021/07/07 00:46:13;;;;;;;4.68;2.05;;;;;;;13.53;84.47;101096.34;10584284;28;20047;-63
2021/07/07 00:51:16;;;;;;;5.88;2.10;;;;;;;13.38;84.81;101106.06;10583991;28;20123;-63
2021/07/07 00:56:19;;;;;;;2.60;2.40;;;;;;;13.42;85.26;101098.84;10583813;28;20058;-63
2021/07/07 01:01:22;;;;;;;8.82;3.08;;;;;;;13.25;86.42;101102.53;10583936;28;20043;-63
2021/07/07 01:06:24;;;;;;;3.40;3.08;;;;;;;13.08;86.36;101109.69;10582816;28;20051;-62
2021/07/07 01:11:26;;;;;;;10.10;2.97;;;;;;;13.20;85.71;101108.91;10583512;28;20048;-63
2021/07/07 01:16:29;;;;;;;4.38;2.60;;;;;;;12.99;86.58;101108.50;10581627;28;20055;-63
2021/07/07 01:21:35;;;;;;;10.98;4.05;;;;;;;12.96;86.54;101113.94;10582575;28;20065;-62
2021/07/07 01:26:37;;;;;;;6.68;3.67;;;;;;;12.91;86.66;101110.75;10582722;28;20494;-63
2021/07/07 01:31:44;;;;;;;7.75;2.90;;;;;;;12.78;87.55;101101.94;10582741;28;20051;-63
2021/07/07 01:36:46;;;;;;;5.55;3.17;;;;;;;13.00;86.08;101094.41;10582554;28;20051;-62
2021/07/07 01:41:48;;;;;;;9.23;3.63;;;;;;;12.86;87.01;101098.81;10582263;28;20040;-63
2021/07/07 01:46:51;;;;;;;10.13;3.20;;;;;;;13.00;85.72;101099.66;10581347;28;20504;-63
2021/07/07 01:51:53;;;;;;;3.72;3.05;;;;;;;12.97;85.88;101096.38;10581877;28;20425;-63
2021/07/07 01:56:55;;;;;;;8.43;5.45;;;;;;;13.18;86.03;101104.72;10581952;28;20052;-63
2021/07/07 02:01:58;;;;;;;5.72;3.80;;;;;;;13.10;85.58;101110.44;10580523;28;20048;-62
2021/07/07 02:07:01;;;;;;;5.45;4.55;;;;;;;13.26;84.94;101098.94;10581797;28;20071;-62
2021/07/07 02:12:04;;;;;;;5.97;5.05;;;;;;;13.08;86.00;101100.94;10581214;28;20129;-62
2021/07/07 02:17:10;;;;;;;6.32;5.25;;;;;;;13.33;85.02;101100.25;10583935;28;20054;-62
2021/07/07 02:22:12;;;;;;;7.55;5.13;;;;;;;13.20;85.32;101095.75;10590072;28;20134;-62
2021/07/07 02:27:14;;;;;;;8.70;5.28;;;;;;;13.02;86.03;101105.66;10590004;28;20047;-63
2021/07/07 02:32:17;;;;;;;8.35;4.72;;;;;;;13.29;85.71;101098.75;10589591;28;20044;-62
2021/07/07 02:37:19;;;;;;;7.10;5.65;;;;;;;13.10;85.84;101110.44;10589639;28;20071;-62
2021/07/07 02:42:21;;;;;;;8.45;5.15;;;;;;;13.15;85.66;101100.47;10589311;28;20052;-63
2021/07/07 02:47:24;;;;;;;6.95;4.80;;;;;;;13.27;85.92;101105.91;10587815;28;20414;-63
2021/07/07 02:52:26;;;;;;;8.68;5.55;;;;;;;13.25;85.63;101102.53;10589245;28;20043;-62
2021/07/07 02:57:55;;;;;;;8.52;5.30;;;;;;;13.29;85.51;101104.84;10588768;28;20052;-62
2021/07/07 03:02:51;;;;;;;6.28;4.68;;;;;;;13.26;86.02;101110.28;10588742;28;20043;-62
2021/07/07 03:07:54;;;;;;;7.78;4.55;;;;;;;13.19;85.59;101109.00;10588326;28;20070;-63
2021/07/07 03:12:57;;;;;;;9.52;5.60;;;;;;;13.15;85.10;101113.63;10587298;28;20052;-63
2021/07/07 03:18:00;;;;;;;7.90;5.70;;;;;;;12.99;86.18;101123.41;10586687;28;20506;-63
2021/07/07 03:23:03;;;;;;;11.35;5.47;;;;;;;13.26;85.65;101122.59;10588487;28;20058;-62
2021/07/07 03:28:06;;;;;;;13.52;6.07;;;;;;;13.35;85.04;101138.69;10586991;28;20051;-63
2021/07/07 03:33:09;;;;;;;13.23;6.78;;;;;;;13.38;85.19;101142.88;10587319;28;20047;-62
2021/07/07 03:38:11;;;;;;;7.95;5.45;;;;;;;13.59;84.32;101143.31;10585840;28;20445;-62
2021/07/07 03:43:14;;;;;;;7.28;5.32;;;;;;;13.50;84.43;101155.28;10585658;28;20466;-61
2021/07/07 03:48:16;;;;;;;7.72;5.47;;;;;;;13.53;84.33;101144.56;10586552;28;20040;-62
2021/07/07 03:53:18;;;;;;;16.95;6.20;;;;;;;13.59;84.10;101140.69;10585402;28;20058;-62
2021/07/07 03:58:22;;;;;;;8.23;5.20;;;;;;;13.34;84.85;101146.66;10586421;28;20094;-62
2021/07/07 04:03:24;;;;;;;9.93;5.88;;;;;;;13.28;84.99;101144.38;10586261;28;20059;-61
2021/07/07 04:08:26;;;;;;;8.73;5.57;;;;;;;13.24;85.21;101137.66;10586108;28;20135;-61
2021/07/07 04:13:30;;;;;;;12.18;5.28;;;;;;;13.41;85.16;101155.00;10584595;28;20055;-61
2021/07/07 04:18:32;;;;;;;8.68;5.55;;;;;;;13.28;85.30;101154.91;10585902;28;20048;-62
2021/07/07 04:23:34;;;;;;;12.38;5.13;;;;;;;13.34;84.58;101167.72;10585081;28;20589;-61
2021/07/07 04:28:37;;;;;;;8.77;5.50;;;;;;;13.41;85.21;101173.44;10584799;28;20039;-62
2021/07/07 04:33:39;;;;;;;9.70;5.85;;;;;;;13.53;84.86;101177.91;10584688;28;20057;-62
2021/07/07 04:38:41;;;;;;;7.60;4.80;;;;;;;13.63;84.64;101186.06;10583506;28;20044;-62
2021/07/07 04:43:44;;;;;;;10.27;4.88;;;;;;;13.94;83.92;101179.66;10584212;28;20553;-62
2021/07/07 04:48:46;;;;;;;9.07;4.50;;;;;;;14.15;83.26;101184.44;10583709;28;20476;-62
2021/07/07 04:53:49;;;;;;;9.45;5.60;;;;;;;14.10;82.06;101192.63;10584187;27;20043;-61
2021/07/07 04:58:52;;;;;;;8.63;5.00;;;;;;;14.22;83.25;101183.94;10584297;28;20043;-62
2021/07/07 05:03:54;;;;;;;11.52;4.70;;;;;;;14.26;81.88;101176.69;10583788;28;20054;-61
2021/07/07 05:08:56;;;;;;;10.07;4.60;;;;;;;14.40;81.43;101186.28;10583213;28;20043;-62
2021/07/07 05:13:59;;;;;;;5.82;4.05;;;;;;;14.40;81.27;101189.75;10583060;28;20050;-61
2021/07/07 05:19:01;;;;;;;7.90;4.00;;;;;;;14.50;82.28;101195.25;10583308;28;20143;-62
2021/07/07 05:24:07;;;;;;;7.28;4.97;;;;;;;14.56;82.46;101194.84;10581619;28;20048;-62
2021/07/07 05:29:09;;;;;;;16.58;4.95;;;;;;;14.60;81.62;101190.25;10583892;28;20053;-62
2021/07/07 05:34:12;;;;;;;10.18;4.57;;;;;;;14.72;80.10;101192.03;10582816;28;20040;-62
2021/07/07 05:39:14;;;;;;;6.68;4.43;;;;;;;14.59;81.54;101188.53;10582301;28;20485;-61
2021/07/07 05:44:30;;;;;;;7.10;5.07;;;;;;;14.64;81.04;101186.44;10582591;28;20055;-61
2021/07/07 05:49:33;;;;;;;8.38;5.20;;;;;;;14.81;81.18;101195.81;10582495;28;20043;-62
2021/07/07 05:54:35;;;;;;;10.93;6.10;;;;;;;14.89;81.35;101211.13;10582149;28;20047;-62
2021/07/07 05:59:38;;;;;;;6.03;4.80;;;;;;;14.98;80.65;101218.41;10580891;28;20048;-62
2021/07/07 06:04:41;;;;;;;6.63;5.00;;;;;;;15.26;80.04;101219.94;10581987;28;20048;-62
2021/07/07 06:09:44;;;;;;;10.25;4.97;;;;;;;15.32;79.95;101227.44;10581855;28;20062;-62
2021/07/07 06:14:46;;;;;;;8.50;4.68;;;;;;;15.49;80.73;101226.22;10581065;28;20051;-61
2021/07/07 06:19:48;;;;;;;11.75;6.43;;;;;;;15.38;79.32;101236.69;10580407;28;20051;-61
2021/07/07 06:24:51;;;;;;;13.27;6.00;;;;;;;15.37;80.36;101237.66;10580228;28;20047;-61
2021/07/07 06:29:53;;;;;;;10.55;5.13;;;;;;;15.62;79.93;101242.03;10563090;28;20475;-62
2021/07/07 06:35:00;;;;;;;11.45;4.78;;;;;;;15.86;79.66;101244.72;10580348;28;20100;-62
2021/07/07 06:40:04;;;;;;;10.23;4.97;;;;;;;16.09;78.73;101250.13;10581092;28;20043;-62
2021/07/07 06:45:08;;;;;;;15.48;5.00;;;;;;;16.02;77.49;101247.09;10581074;28;20079;-61
2021/07/07 06:50:13;;;;;;;9.50;5.53;;;;;;;16.00;78.89;101242.88;10581055;28;20051;-61
2021/07/07 06:55:15;;;;;;;11.98;5.32;;;;;;;16.13;78.93;101251.59;10580967;28;20399;-62
2021/07/07 07:00:19;;;;;;;11.70;4.63;;;;;;;16.57;78.17;101255.34;10580621;28;20566;-63
2021/07/07 07:05:21;;;;;;;12.73;5.38;;;;;;;16.41;79.25;101253.03;10586757;28;20055;-62
2021/07/07 07:10:24;;;;;;;9.35;4.55;;;;;;;16.53;77.99;101257.38;10588727;28;20043;-62
2021/07/07 07:15:26;;;;;;;12.00;4.15;;;;;;;17.03;75.06;101253.66;10588021;28;20083;-62
2021/07/07 07:20:30;;;;;;;11.30;3.67;;;;;;;17.58;73.95;101251.97;10588216;28;20505;-62
2021/07/07 07:25:32;;;;;;;6.97;3.47;;;;;;;17.75;72.64;101266.53;10569498;28;20052;-62
2021/07/07 07:30:34;;;;;;;9.13;3.72;;;;;;;18.18;71.45;101275.47;10587734;28;20052;-62
2021/07/07 07:35:37;;;;;;;7.72;3.15;;;;;;;18.54;70.80;101284.81;10587324;28;20040;-62
2021/07/07 07:40:42;;;;;;;9.68;4.15;;;;;;;18.36;70.72;101286.34;10586569;28;20044;-62
2021/07/07 07:45:45;;;;;;;9.52;3.03;;;;;;;18.55;70.30;101283.84;10586053;28;20487;-62
2021/07/07 07:50:47;;;;;;;7.85;2.75;;;;;;;19.04;70.41;101292.16;10586069;28;20048;-63
2021/07/07 07:55:50;;;;;;;9.68;3.58;;;;;;;18.60;67.87;101293.25;10585137;28;20055;-62
2021/07/07 08:00:52;;;;;;;9.85;3.45;;;;;;;19.22;67.39;101294.22;10586261;28;20047;-62
2021/07/07 08:05:54;;;;;;;8.27;3.05;;;;;;;18.91;66.13;101297.69;10585904;28;20059;-62
2021/07/07 08:10:57;;;;;;;9.95;3.15;;;;;;;19.69;65.02;101297.19;10585912;28;20047;-63
2021/07/07 08:15:59;;;;;;;4.15;2.63;;;;;;;20.15;64.16;101300.25;10584810;28;20054;-61
2021/07/07 08:21:02;;;;;;;13.07;2.80;;;;;;;20.31;61.15;101291.69;10584787;28;20051;-62
2021/07/07 08:26:04;;;;;;;5.00;2.30;;;;;;;21.54;60.87;101298.91;10584350;28;20051;-63
2021/07/07 08:31:07;;;;;;;6.57;2.08;;;;;;;22.18;60.02;101302.44;10585208;28;20044;-62
2021/07/07 08:36:09;;;;;;;8.25;2.63;;;;;;;21.96;56.48;101294.91;10583770;28;20134;-62
2021/07/07 08:41:12;;;;;;;7.70;2.78;;;;;;;22.33;57.15;101294.78;10583376;28;20048;-62
2021/07/07 08:46:15;;;;;;;7.47;2.25;;;;;;;22.81;56.84;101296.19;10583924;28;20400;-62
2021/07/07 08:51:17;;;;;;;6.15;2.28;;;;;;;21.70;57.19;101306.25;10584486;28;20043;-62
2021/07/07 08:56:20;;;;;;;10.43;2.17;;;;;;;22.94;51.47;101308.28;10582454;28;20043;-63
2021/07/07 09:01:22;;;;;;;3.17;1.90;;;;;;;21.53;57.24;101310.56;10583674;28;20483;-64
2021/07/07 09:06:25;;;;;;;3.58;2.00;;;;;;;21.31;59.16;101315.22;10583323;28;20054;-62
2021/07/07 09:11:27;;;;;;;9.63;2.10;;;;;;;21.30;58.33;101318.91;10583579;28;20100;-63
2021/07/07 09:16:48;;;;;;;4.85;2.05;;;;;;;23.74;53.43;101324.06;10581994;28;20092;-62
2021/07/07 09:21:53;;;;;;;4.88;1.80;;;;;;;23.64;52.59;101334.06;10582601;28;20039;-63
2021/07/07 09:27:09;;;;;;;9.52;2.33;;;;;;;24.37;50.38;101336.09;10582433;28;20436;-63
2021/07/07 09:32:29;;;;;;;6.72;2.28;;;;;;;22.49;52.95;101344.78;10582142;28;20043;-63
2021/07/07 09:37:36;;;;;;;8.75;2.50;;;;;;;21.45;55.52;101350.38;10582317;28;20044;-62
2021/07/07 09:42:40;;;;;;;9.00;2.10;;;;;;;23.35;51.05;101352.13;10581546;28;20039;-62
2021/07/07 09:47:43;;;;;;;4.63;1.48;;;;;;;23.78;51.60;101354.81;10581877;28;20116;-62
2021/07/07 09:52:47;;;;;;;5.43;1.85;;;;;;;23.42;51.13;101356.81;10565387;28;20062;-62
2021/07/07 09:57:50;;;;;;;5.82;1.83;;;;;;;23.04;51.34;101354.38;10581847;28;20047;-62
2021/07/07 10:02:54;;;;;;;5.70;2.50;;;;;;;22.56;52.66;101361.00;10582474;28;20047;-62
2021/07/07 10:07:56;;;;;;;7.15;2.20;;;;;;;22.70;56.44;101368.50;10580521;28;20044;-62
2021/07/07 10:12:59;;;;;;;8.13;2.42;;;;;;;21.97;54.75;101365.88;10580531;28;20048;-62
2021/07/07 10:18:03;;;;;;;3.97;2.08;;;;;;;21.68;56.18;101367.69;10580506;28;20388;-62
2021/07/07 10:23:08;;;;;;;5.45;1.80;;;;;;;22.36;52.93;101368.31;10581594;28;20047;-62
2021/07/07 10:28:13;;;;;;;4.70;1.55;;;;;;;21.45;57.49;101377.00;10580107;28;20411;-62
2021/07/07 10:33:16;;;;;;;9.82;2.70;;;;;;;21.79;57.10;101382.66;10579813;28;20047;-62
2021/07/07 10:38:18;;;;;;;8.68;2.13;;;;;;;21.80;57.07;101384.34;10582853;28;20399;-62
2021/07/07 10:43:44;;;;;;;6.28;1.58;;;;;;;22.32;55.90;101396.31;10588397;28;20054;-62
2021/07/07 10:48:46;;;;;;;7.35;1.95;;;;;;;22.38;53.76;101390.38;10571083;28;20047;-61
2021/07/07 10:53:49;;;;;;;10.02;2.47;;;;;;;22.08;54.67;101395.00;10571045;28;20047;-61
2021/07/07 10:58:51;;;;;;;6.45;2.15;;;;;;;22.17;52.49;101395.94;10588509;28;20479;-61
2021/07/07 11:04:01;;;;;;;5.18;2.08;;;;;;;21.48;58.37;101395.41;10589188;28;20051;-61
2021/07/07 11:09:15;;;;;;;6.63;2.60;;;;;;;21.54;56.24;101402.81;10584610;28;20076;-61
2021/07/07 11:14:24;;;;;;;6.70;1.83;;;;;;;22.46;52.22;101411.81;10576980;28;20047;-59
2021/07/07 11:19:40;;;;;;;9.98;2.72;;;;;;;21.95;55.40;101410.50;10586609;28;20048;-61
2021/07/07 11:24:48;;;;;;;6.82;2.25;;;;;;;23.95;51.01;101419.91;10588099;28;20056;-62
2021/07/07 11:29:51;;;;;;;8.93;1.75;;;;;;;23.88;49.77;101419.72;10586284;28;20051;-62
2021/07/07 11:35:14;;;;;;;4.20;1.50;;;;;;;24.47;50.20;101419.75;10587676;28;20127;-61
2021/07/07 11:40:18;;;;;;;3.63;1.70;;;;;;;23.69;49.84;101423.47;10587299;28;20126;-62
2021/07/07 11:45:22;;;;;;;3.00;1.50;;;;;;;24.09;47.95;101426.47;10568988;28;20054;-62
2021/07/07 11:50:26;;;;;;;5.78;1.83;;;;;;;26.03;42.81;101420.66;10586342;28;20079;-61
2021/07/07 11:55:58;;;;;;;12.82;2.00;;;;;;;25.73;45.41;101423.06;10585363;28;20051;-62
2021/07/07 12:01:06;;;;;;;3.70;1.77;;;;;;;24.85;45.96;101441.59;10569029;28;20048;-62
2021/07/07 12:06:10;;;;;;;7.50;1.70;;;;;;;25.13;44.58;101435.03;10586469;28;20043;-63
2021/07/07 12:11:14;;;;;;;6.50;1.50;;;;;;;24.63;48.22;101436.88;10586608;28;20051;-61
2021/07/07 12:16:22;;;;;;;4.25;1.67;;;;;;;24.64;46.11;101442.03;10585888;28;20054;-62
2021/07/07 12:21:24;;;;;;;3.17;1.60;;;;;;;26.20;45.59;101441.00;10585509;28;20055;-64
2021/07/07 12:26:32;;;;;;;5.20;1.80;;;;;;;26.06;42.51;101442.59;10585230;28;20043;-62
2021/07/07 12:31:38;;;;;;;2.55;1.30;;;;;;;26.87;40.19;101444.97;10585278;28;20511;-62
2021/07/07 12:36:44;;;;;;;5.82;1.65;;;;;;;28.05;41.33;101440.78;10566746;28;20051;-62
2021/07/07 12:41:50;;;;;;;6.68;1.30;;;;;;;29.22;38.58;101452.38;10584536;28;20521;-62
2021/07/07 12:46:53;;;;;;;5.40;1.30;;;;;;;29.31;38.32;101451.19;10584368;28;20514;-63
2021/07/07 12:52:21;;;;;;;3.25;1.42;;;;;;;29.16;36.70;101451.25;10584149;28;20048;-62
2021/07/07 12:57:23;;;;;;;3.67;1.38;;;;;;;27.68;38.74;101458.69;10584207;28;20049;-61
2021/07/07 13:02:25;;;;;;;2.70;1.23;;;;;;;26.88;41.80;101473.50;10583686;28;20065;-62
2021/07/07 13:07:28;;;;;;;3.03;1.10;;;;;;;28.86;40.72;101466.75;10582437;28;20054;-63
2021/07/07 13:12:30;;;;;;;3.30;1.13;;;;;;;27.95;36.97;101467.16;10583489;28;20124;-63
2021/07/07 13:17:32;;;;;;;2.85;1.60;;;;;;;25.68;39.73;101458.44;10583221;28;20055;-62
2021/07/07 13:22:35;;;;;;;7.05;2.17;;;;;;;26.83;41.94;101459.78;10583139;28;20059;-62
2021/07/07 13:27:38;;;;;;;1.67;1.10;;;;;;;25.49;40.50;101465.03;10583859;28;20047;-62
2021/07/07 13:32:47;;;;;;;2.60;1.40;;;;;;;27.22;38.49;101469.56;10583051;28;20044;-61
2021/07/07 13:37:51;;;;;;;2.92;1.05;;;;;;;28.35;37.70;101467.66;10581591;28;20047;-62
2021/07/07 13:42:55;;;;;;;3.60;1.00;;;;;;;27.71;41.42;101470.94;10582472;28;20071;-62
2021/07/07 13:47:57;;;;;;;3.33;1.27;;;;;;;25.86;39.52;101471.63;10582510;28;20050;-62
2021/07/07 13:52:59;;;;;;;1.63;1.05;;;;;;;26.81;40.99;101486.81;10582175;28;20044;-63
2021/07/07 13:58:02;;;;;;;4.15;1.48;;;;;;;26.56;43.95;101485.28;10582002;28;20056;-62
2021/07/07 14:03:04;;;;;;;3.10;1.13;;;;;;;25.90;42.13;101493.59;10582826;28;20043;-62
2021/07/07 14:08:06;;;;;;;5.22;1.52;;;;;;;25.41;42.51;101499.88;10581764;28;20394;-63
2021/07/07 14:13:09;;;;;;;2.58;1.13;;;;;;;26.07;43.04;101494.41;10586917;28;20043;-62
2021/07/07 14:18:11;;;;;;;2.53;1.13;;;;;;;26.01;42.06;101506.66;10590414;28;20143;-62
2021/07/07 14:23:14;;;;;;;4.65;1.40;;;;;;;26.64;41.41;101498.69;10589946;28;20047;-63
2021/07/07 14:28:16;;;;;;;2.03;1.20;;;;;;;26.45;39.90;101497.25;10590139;28;20048;-63
2021/07/07 14:33:19;;;;;;;2.10;1.40;;;;;;;27.27;40.27;101499.41;10589605;28;20039;-63
2021/07/07 14:38:21;;;;;;;2.60;0.95;;;;;;;27.25;41.51;101501.41;10588330;28;20044;-63
2021/07/07 14:43:24;;;;;;;2.45;1.50;;;;;;;26.71;39.74;101488.06;10589637;28;20043;-62
2021/07/07 14:48:26;;;;;;;3.00;1.35;;;;;;;26.76;43.58;101508.00;10588990;28;20051;-62
2021/07/07 14:53:29;;;;;;;3.72;1.25;;;;;;;28.22;38.10;101487.16;10570778;28;20044;-62
2021/07/07 14:58:31;;;;;;;3.83;1.35;;;;;;;27.97;39.47;101498.25;10588231;28;20052;-63
2021/07/07 15:03:34;;;;;;;2.90;1.20;;;;;;;26.25;42.26;101489.63;10588499;28;20070;-62
2021/07/07 15:08:36;;;;;;;2.85;1.25;;;;;;;27.50;39.24;101483.25;10588399;27;20052;-62
2021/07/07 15:13:39;;;;;;;1.98;1.77;;;;;;;27.31;37.72;101484.59;10588749;28;20043;-62
2021/07/07 15:18:41;;;;;;;5.22;1.20;;;;;;;26.14;40.82;101485.50;10587579;28;20058;-62
2021/07/07 15:23:44;;;;;;;1.90;1.33;;;;;;;27.33;39.96;101485.25;10587838;28;20052;-63
2021/07/07 15:28:50;;;;;;;5.53;1.35;;;;;;;26.67;40.07;101491.09;10587378;28;20055;-62
2021/07/07 15:33:53;;;;;;;3.13;1.25;;;;;;;26.51;40.72;101489.34;10588194;28;20048;-61
2021/07/07 15:38:56;;;;;;;3.95;1.35;;;;;;;26.41;41.89;101491.41;10586037;28;20043;-63
2021/07/07 15:43:58;;;;;;;3.65;1.88;;;;;;;26.66;41.05;101496.66;10586983;28;20499;-63
2021/07/07 15:49:01;;;;;;;2.97;1.00;;;;;;;27.37;38.82;101499.16;10587359;28;20044;-63
2021/07/07 15:54:03;;;;;;;1.38;1.13;;;;;;;26.07;38.84;101489.03;10586115;28;20051;-62
2021/07/07 15:59:06;;;;;;;1.27;0.95;;;;;;;27.10;40.81;101493.34;10586367;28;20043;-63
2021/07/07 16:04:08;;;;;;;5.07;2.55;;;;;;;26.07;39.67;101502.44;10586355;28;20052;-63
2021/07/07 16:09:10;;;;;;;5.55;1.10;;;;;;;26.36;37.63;101501.84;10585909;28;20051;-64
2021/07/07 16:14:13;;;;;;;1.70;1.42;;;;;;;25.27;41.93;101505.91;10585894;28;20047;-62
2021/07/07 16:19:15;;;;;;;2.60;1.15;;;;;;;25.75;39.24;101498.81;10585417;28;20047;-63
2021/07/07 16:24:18;;;;;;;1.42;1.33;;;;;;;25.10;41.57;101503.22;10567534;28;20054;-62
2021/07/07 16:29:20;;;;;;;3.72;1.65;;;;;;;25.44;42.40;101512.13;10585149;28;20399;-62
2021/07/07 16:34:22;;;;;;;3.92;1.48;;;;;;;25.92;40.30;101515.72;10583712;28;20044;-62
2021/07/07 16:39:25;;;;;;;3.65;1.38;;;;;;;26.10;41.78;101513.66;10584802;28;20051;-62
2021/07/07 16:44:27;;;;;;;3.47;1.48;;;;;;;25.66;40.78;101515.94;10584659;28;20047;-63
2021/07/07 16:49:30;;;;;;;4.05;1.90;;;;;;;26.44;40.88;101519.75;10584720;28;20039;-62
2021/07/07 16:54:32;;;;;;;1.88;1.52;;;;;;;26.03;41.88;101519.91;10584227;28;20050;-62
2021/07/07 16:59:35;;;;;;;3.20;1.48;;;;;;;24.97;41.77;101514.41;10584349;28;20123;-62
2021/07/07 17:04:37;;;;;;;3.55;1.60;;;;;;;25.81;43.31;101510.72;10584040;28;20062;-62
2021/07/07 17:09:39;;;;;;;3.10;1.58;;;;;;;25.18;42.59;101513.06;10583275;28;20482;-63
2021/07/07 17:14:42;;;;;;;11.32;2.92;;;;;;;24.95;42.78;101520.91;10582215;28;20044;-63
2021/07/07 17:19:44;;;;;;;4.20;1.75;;;;;;;25.01;46.16;101528.31;10582847;28;20051;-63
2021/07/07 17:24:46;;;;;;;3.45;1.73;;;;;;;24.48;46.90;101523.13;10583044;28;20517;-62
2021/07/07 17:29:49;;;;;;;4.93;1.60;;;;;;;24.72;42.80;101531.44;10582750;28;20383;-63
2021/07/07 17:34:51;;;;;;;3.85;1.70;;;;;;;24.08;43.97;101529.97;10583360;28;20047;-63
2021/07/07 17:39:53;;;;;;;5.90;1.95;;;;;;;24.39;45.76;101532.13;10582715;28;20058;-65
2021/07/07 17:44:56;;;;;;;2.30;1.55;;;;;;;24.05;46.33;101535.63;10581293;28;20307;-62
2021/07/07 17:49:58;;;;;;;5.82;1.90;;;;;;;23.78;46.06;101544.63;10582158;28;20051;-63
2021/07/07 17:55:00;;;;;;;6.70;1.90;;;;;;;23.72;49.77;101547.94;10580972;28;20059;-63
2021/07/07 18:00:04;;;;;;;3.45;1.75;;;;;;;23.61;48.85;101558.88;10582036;28;20047;-63
2021/07/07 18:05:07;;;;;;;3.63;1.88;;;;;;;23.92;46.34;101556.63;10582276;28;20058;-63
2021/07/07 18:10:11;;;;;;;2.70;1.98;;;;;;;23.84;49.50;101557.41;10581844;28;20040;-62
2021/07/07 18:15:13;;;;;;;6.93;3.40;;;;;;;23.73;48.72;101563.81;10581539;28;20495;-63
2021/07/07 18:20:17;;;;;;;3.05;1.65;;;;;;;23.81;46.33;101565.72;10581632;28;20058;-63
2021/07/07 18:25:20;;;;;;;2.85;1.70;;;;;;;23.31;49.10;101571.66;10581991;28;20093;-64
2021/07/07 18:30:22;;;;;;;4.13;1.70;;;;;;;23.11;48.39;101573.63;10581311;28;20396;-63
2021/07/07 18:35:24;;;;;;;4.90;2.17;;;;;;;;;;10581043;28;20413;-63
2021/07/07 18:40:28;;;;;;;3.92;2.20;;;;;;;22.57;52.07;101569.00;10581208;28;20411;-62
2021/07/07 18:45:31;;;;;;;7.65;4.00;;;;;;;21.89;57.96;101570.06;10581087;28;20059;-63
2021/07/07 18:50:33;;;;;;;11.15;5.47;;;;;;;21.44;59.52;101575.13;10581244;28;20051;-63
2021/07/07 18:55:36;;;;;;;3.55;2.40;;;;;;;21.13;61.80;101585.88;10579987;28;20580;-63
2021/07/07 19:00:38;;;;;;;4.47;2.58;;;;;;;21.08;61.37;101588.97;10586321;28;20047;-62
2021/07/07 19:05:41;;;;;;;7.78;3.10;;;;;;;20.77;61.20;101597.00;10588558;28;20059;-64
2021/07/07 19:10:44;;;;;;;5.90;3.03;;;;;;;20.65;64.26;101603.41;10589212;28;20066;-63
2021/07/07 19:15:46;;;;;;;6.68;2.38;;;;;;;20.31;65.24;101602.78;10588715;28;20051;-62
2021/07/07 19:20:49;;;;;;;4.05;2.33;;;;;;;20.18;65.90;101616.31;10588270;28;20056;-62
2021/07/07 19:25:53;;;;;;;3.20;2.83;;;;;;;19.70;68.02;101616.78;10587891;28;20043;-63
2021/07/07 19:30:55;;;;;;;4.43;2.85;;;;;;;19.23;69.52;101611.75;10587822;28;20406;-62
2021/07/07 19:35:57;;;;;;;3.38;2.30;;;;;;;19.17;69.99;101615.75;10588031;28;20047;-64
2021/07/07 19:41:00;;;;;;;4.03;2.92;;;;;;;18.96;70.14;101618.31;10586884;28;20049;-62
2021/07/07 19:46:02;;;;;;;5.55;3.10;;;;;;;18.92;69.73;101636.31;10587647;28;20048;-64
2021/07/07 19:51:05;;;;;;;3.17;2.83;;;;;;;18.56;71.13;101638.22;10586071;28;20040;-63
2021/07/07 19:56:07;;;;;;;8.05;3.03;;;;;;;18.53;70.47;101646.41;10586516;28;20487;-64
2021/07/07 20:01:09;;;;;;;4.80;2.85;;;;;;;18.31;71.37;101659.63;10587103;28;20043;-63
2021/07/07 20:06:12;;;;;;;4.70;2.90;;;;;;;18.21;71.01;101659.50;10586370;28;20047;-62
2021/07/07 20:11:15;;;;;;;3.47;2.75;;;;;;;18.04;71.62;101668.72;10585737;28;20051;-63
2021/07/07 20:16:20;;;;;;;3.38;3.08;;;;;;;17.91;71.86;101673.25;10585606;28;20043;-62
2021/07/07 20:21:23;;;;;;;5.53;3.30;;;;;;;17.87;72.40;101677.06;10586220;28;20059;-63
2021/07/07 20:26:26;;;;;;;7.70;3.10;;;;;;;18.05;71.76;101686.28;10584151;28;20521;-62
2021/07/07 20:31:29;;;;;;;5.53;3.40;;;;;;;17.90;71.94;101687.44;10585301;28;20501;-62
2021/07/07 20:36:31;;;;;;;5.97;3.80;;;;;;;17.73;71.51;101693.97;10584697;28;20047;-63
2021/07/07 20:41:33;;;;;;;3.65;2.63;;;;;;;17.62;72.14;101692.13;10585149;28;20043;-62
2021/07/07 20:46:36;;;;;;;4.03;3.45;;;;;;;17.43;73.57;101692.56;10584459;28;20047;-63
2021/07/07 20:51:38;;;;;;;4.38;3.55;;;;;;;17.33;72.80;101700.38;10584816;28;20066;-61
2021/07/07 20:56:41;;;;;;;5.85;3.60;;;;;;;17.32;73.40;101703.94;10584158;28;20051;-62
2021/07/07 21:01:43;;;;;;;5.03;3.60;;;;;;;17.16;73.99;101711.28;10582825;28;20039;-63
2021/07/07 21:06:45;;;;;;;7.90;3.70;;;;;;;16.88;74.58;101708.78;10583776;27;20054;-62
2021/07/07 21:11:48;;;;;;;8.60;3.50;;;;;;;17.01;74.62;101703.50;10583918;28;20047;-62
2021/07/07 21:16:50;;;;;;;5.28;3.17;;;;;;;16.71;75.60;101706.44;10583159;28;20410;-62
2021/07/07 21:21:54;;;;;;;5.13;4.60;;;;;;;16.72;76.01;101708.97;10583345;28;20055;-64
2021/07/07 21:26:56;;;;;;;6.15;4.55;;;;;;;16.48;76.97;101715.94;10582861;28;20537;-61
2021/07/07 21:31:59;;;;;;;10.57;4.20;;;;;;;16.46;76.64;101726.63;10583064;28;20039;-62
2021/07/07 21:37:02;;;;;;;6.03;4.00;;;;;;;16.33;76.77;101723.09;10583524;28;20044;-62
2021/07/07 21:42:04;;;;;;;7.30;4.47;;;;;;;16.46;76.59;101739.00;10583249;28;20051;-62
2021/07/07 21:47:07;;;;;;;5.28;3.63;;;;;;;16.45;76.45;101740.78;10582734;28;20051;-61
2021/07/07 21:52:09;;;;;;;7.25;4.40;;;;;;;16.21;77.65;101737.97;10582291;28;20475;-61
2021/07/07 21:57:14;;;;;;;7.78;5.07;;;;;;;16.05;78.88;101732.00;10582543;28;20047;-61
2021/07/07 22:02:16;;;;;;;11.35;6.43;;;;;;;16.03;78.57;101741.84;10582796;28;20050;-62
2021/07/07 22:07:18;;;;;;;4.78;4.32;;;;;;;16.13;77.92;101751.69;10581860;28;20506;-62
2021/07/07 22:12:21;;;;;;;9.63;4.65;;;;;;;16.04;78.72;101746.16;10581521;28;20487;-61
2021/07/07 22:17:30;;;;;;;8.45;4.95;;;;;;;15.95;78.85;101750.25;10580884;28;20064;-63
2021/07/07 22:22:33;;;;;;;9.38;4.47;;;;;;;15.95;79.43;101758.16;10581428;28;20472;-61
2021/07/07 22:27:40;;;;;;;8.18;4.60;;;;;;;15.91;78.82;101761.97;10581708;28;20051;-62
2021/07/07 22:32:45;;;;;;;8.60;5.13;;;;;;;15.92;79.16;101759.22;10582814;28;20403;-61
2021/07/07 22:37:48;;;;;;;4.95;4.47;;;;;;;15.80;79.92;101762.63;10590111;28;20159;-61
2021/07/07 22:42:51;;;;;;;7.00;5.72;;;;;;;15.80;79.26;101762.63;10589348;28;20043;-61
2021/07/07 22:47:54;;;;;;;8.93;5.28;;;;;;;15.71;80.41;101771.97;10589128;28;20043;-62
2021/07/07 22:52:58;;;;;;;8.98;5.15;;;;;;;15.65;80.86;101772.38;10588943;28;20507;-61
2021/07/07 22:58:05;;;;;;;6.95;4.97;;;;;;;15.58;80.48;101776.31;10589293;28;20054;-60
2021/07/07 23:03:08;;;;;;;6.68;4.90;;;;;;;15.54;80.47;101782.75;10588834;28;20043;-62
2021/07/07 23:08:11;;;;;;;6.82;5.18;;;;;;;15.51;80.53;101772.38;10587853;28;20058;-60
2021/07/07 23:13:14;;;;;;;8.38;5.28;;;;;;;15.48;80.23;101781.34;10588995;28;20071;-62